Time;durP1;ratioP1;P1;durP2;ratioP2;P2;SDS_P1;SDS_P2;PMS_P1;PMS_P2;Temp;Humidity;BMP_temperature;BMP_pressure;BME280_temperature;BME280_humidity;BME280_pressure;Samples;Min_cycle;Max_cycle;Signal;HPM_P1;HPM_P2
2021/10/16 00:01:16;;;;;;;21.70;17.07;;;;;16.20;98661.00;;;;5061266;28;20207;-87
2021/10/16 00:03:43;;;;;;;22.40;17.20;;;;;16.20;98660.00;;;;5061343;28;20197;-87
2021/10/16 00:06:09;;;;;;;19.27;15.67;;;;;16.20;98668.00;;;;5061469;28;20259;-87
2021/10/16 00:08:36;;;;;;;21.23;17.77;;;;;16.20;98664.00;;;;5061056;28;20274;-87
2021/10/16 00:11:03;;;;;;;19.33;16.53;;;;;16.20;98657.00;;;;5077659;28;20633;-87
2021/10/16 00:13:30;;;;;;;19.07;16.10;;;;;16.20;98663.00;;;;5061421;28;20660;-89
2021/10/16 00:15:56;;;;;;;19.60;16.30;;;;;16.20;98656.00;;;;5061222;28;20254;-88
2021/10/16 00:18:23;;;;;;;22.30;16.63;;;;;16.20;98657.00;;;;5078161;28;20212;-88
2021/10/16 00:20:50;;;;;;;19.90;16.77;;;;;16.10;98658.00;;;;5061217;28;20506;-88
2021/10/16 00:23:16;;;;;;;21.13;16.40;;;;;16.20;98650.00;;;;5077549;28;20204;-88
2021/10/16 00:25:43;;;;;;;18.87;15.93;;;;;16.20;98641.00;;;;5061055;28;20680;-88
2021/10/16 00:28:10;;;;;;;20.10;15.80;;;;;16.20;98647.00;;;;5095217;28;20507;-88
2021/10/16 00:30:36;;;;;;;19.70;15.90;;;;;16.10;98646.00;;;;5077747;28;20215;-88
2021/10/16 00:33:03;;;;;;;17.83;14.33;;;;;16.20;98632.00;;;;5077739;28;20248;-89
2021/10/16 00:35:30;;;;;;;20.87;16.20;;;;;16.10;98638.00;;;;5060834;28;20617;-89
2021/10/16 00:37:56;;;;;;;19.07;15.17;;;;;16.10;98635.00;;;;5060841;28;20608;-89
2021/10/16 00:40:24;;;;;;;18.23;15.13;;;;;16.10;98640.00;;;;5077377;28;20245;-89
2021/10/16 00:42:54;;;;;;;19.87;16.23;;;;;16.10;98641.00;;;;5060844;28;20192;-89
2021/10/16 00:45:23;;;;;;;19.27;15.17;;;;;16.20;98625.00;;;;5060575;28;20190;-88
2021/10/16 00:47:50;;;;;;;18.40;15.70;;;;;16.10;98634.00;;;;5077360;28;20198;-88
2021/10/16 00:50:19;;;;;;;19.30;15.80;;;;;16.10;98631.00;;;;5061178;28;20550;-89
2021/10/16 00:52:47;;;;;;;17.17;14.70;;;;;16.10;98638.00;;;;5077322;28;20201;-89
2021/10/16 00:55:16;;;;;;;17.33;14.77;;;;;16.10;98642.00;;;;5060635;28;20198;-88
2021/10/16 00:57:44;;;;;;;18.80;14.33;;;;;16.10;98638.00;;;;5077454;28;20197;-88
2021/10/16 01:00:12;;;;;;;17.93;15.07;;;;;16.10;98635.00;;;;5060574;28;20187;-88
2021/10/16 01:02:40;;;;;;;17.00;14.50;;;;;16.10;98645.00;;;;5077106;28;20202;-88
2021/10/16 01:05:08;;;;;;;18.17;15.40;;;;;16.10;98637.00;;;;5060493;28;20198;-88
2021/10/16 01:07:39;;;;;;;17.83;13.80;;;;;16.10;98642.00;;;;5060714;28;20270;-88
2021/10/16 01:10:08;;;;;;;16.53;13.20;;;;;16.10;98643.00;;;;5060416;28;20669;-88
2021/10/16 01:12:37;;;;;;;16.90;13.80;;;;;16.10;98641.00;;;;5077055;28;20223;-89
2021/10/16 01:15:13;;;;;;;17.47;14.40;;;;;16.10;98641.00;;;;5077807;28;20721;-88
2021/10/16 01:17:41;;;;;;;15.67;13.57;;;;;16.10;98647.00;;;;5063819;28;20551;-88
2021/10/16 01:20:16;;;;;;;17.77;14.10;;;;;16.10;98652.00;;;;5064257;28;20610;-88
2021/10/16 01:22:44;;;;;;;15.27;12.97;;;;;16.10;98653.00;;;;5080744;28;20193;-88
2021/10/16 01:25:16;;;;;;;17.00;13.77;;;;;16.00;98646.00;;;;5081558;28;20189;-87
2021/10/16 01:27:46;;;;;;;17.23;13.57;;;;;16.00;98643.00;;;;5064772;28;20186;-87
2021/10/16 01:30:15;;;;;;;16.53;12.80;;;;;16.00;98642.00;;;;5080652;28;20220;-87
2021/10/16 01:32:42;;;;;;;16.57;13.87;;;;;16.10;98637.00;;;;5080739;28;20192;-87
2021/10/16 01:35:11;;;;;;;16.13;13.27;;;;;16.10;98636.00;;;;5080745;28;20184;-88
2021/10/16 01:37:40;;;;;;;14.27;12.47;;;;;16.00;98627.00;;;;5081073;28;20201;-87
2021/10/16 01:40:09;;;;;;;17.23;13.17;;;;;16.10;98610.00;;;;5063922;28;20264;-87
2021/10/16 01:42:36;;;;;;;15.67;12.77;;;;;16.00;98613.00;;;;5063882;28;20209;-87
2021/10/16 01:45:05;;;;;;;15.97;12.70;;;;;16.00;98622.00;;;;5063943;28;20194;-87
2021/10/16 01:47:44;;;;;;;15.23;12.43;;;;;16.00;98624.00;;;;5080438;28;20180;-87
2021/10/16 01:50:11;;;;;;;14.80;12.67;;;;;16.00;98617.00;;;;5080270;28;20237;-87
2021/10/16 01:52:38;;;;;;;15.07;12.60;;;;;16.00;98621.00;;;;5080818;28;20197;-88
2021/10/16 01:55:05;;;;;;;14.23;11.77;;;;;16.00;98620.00;;;;5063665;28;20198;-87
2021/10/16 01:57:33;;;;;;;15.30;13.03;;;;;16.00;98621.00;;;;5064007;28;20220;-87
2021/10/16 02:00:05;;;;;;;14.00;11.93;;;;;16.00;98628.00;;;;5063929;28;20194;-87
2021/10/16 02:02:33;;;;;;;13.23;11.43;;;;;16.00;98635.00;;;;5080417;28;20189;-87
2021/10/16 02:05:19;;;;;;;13.70;11.30;;;;;16.00;98625.00;;;;5099158;28;20624;-87
2021/10/16 02:07:58;;;;;;;14.97;12.27;;;;;16.00;98627.00;;;;5065579;28;20292;-87
2021/10/16 02:10:25;;;;;;;14.77;11.93;;;;;16.00;98629.00;;;;5063608;28;20226;-87
2021/10/16 02:12:52;;;;;;;14.43;11.90;;;;;16.00;98623.00;;;;5063404;28;20193;-87
2021/10/16 02:15:18;;;;;;;14.57;11.80;;;;;16.00;98629.00;;;;5079739;28;20284;-87
2021/10/16 02:18:11;;;;;;;13.80;11.07;;;;;16.00;98621.00;;;;5081900;28;20209;-87
2021/10/16 02:20:38;;;;;;;12.70;11.37;;;;;16.00;98624.00;;;;5063085;28;20712;-88
2021/10/16 02:23:05;;;;;;;13.27;11.00;;;;;16.00;98624.00;;;;5079614;28;20192;-87
2021/10/16 02:25:36;;;;;;;13.30;10.97;;;;;16.00;98613.00;;;;5063624;28;20184;-88
2021/10/16 02:28:03;;;;;;;13.10;11.20;;;;;16.00;98615.00;;;;5062113;28;20215;-87
2021/10/16 02:30:30;;;;;;;13.90;11.27;;;;;16.00;98619.00;;;;5079437;28;20211;-87
2021/10/16 02:32:58;;;;;;;11.93;10.43;;;;;16.00;98617.00;;;;5079447;28;20532;-88
2021/10/16 02:35:25;;;;;;;12.83;10.83;;;;;16.00;98619.00;;;;5079459;28;20192;-88
2021/10/16 02:37:51;;;;;;;12.90;11.03;;;;;16.00;98620.00;;;;5079263;28;20581;-87
2021/10/16 02:40:18;;;;;;;12.20;10.90;;;;;16.00;98632.00;;;;5062946;28;20229;-87
2021/10/16 02:42:45;;;;;;;15.23;11.17;;;;;16.00;98632.00;;;;5079251;28;20198;-87
2021/10/16 02:45:11;;;;;;;12.47;11.00;;;;;16.00;98623.00;;;;5079718;28;20613;-87
2021/10/16 02:47:38;;;;;;;11.27;9.90;;;;;16.00;98629.00;;;;5079264;28;20288;-88
2021/10/16 02:50:05;;;;;;;11.97;10.30;;;;;16.00;98621.00;;;;5079455;28;20655;-87
2021/10/16 02:52:31;;;;;;;12.63;10.63;;;;;16.00;98628.00;;;;5079225;28;20203;-88
2021/10/16 02:54:58;;;;;;;12.03;10.37;;;;;16.00;98627.00;;;;5062442;28;20584;-87
2021/10/16 02:57:35;;;;;;;11.80;10.57;;;;;16.00;98636.00;;;;5064547;28;20191;-87
2021/10/16 03:00:04;;;;;;;12.00;10.70;;;;;16.00;98629.00;;;;5078891;28;20279;-87
2021/10/16 03:02:31;;;;;;;12.10;10.10;;;;;16.00;98626.00;;;;5078854;28;20213;-87
2021/10/16 03:04:58;;;;;;;11.40;10.20;;;;;16.00;98633.00;;;;5062507;28;20634;-87
2021/10/16 03:07:25;;;;;;;13.07;10.10;;;;;16.00;98630.00;;;;5062365;28;20285;-87
2021/10/16 03:09:51;;;;;;;11.37;10.13;;;;;16.00;98631.00;;;;5078674;28;20213;-87
2021/10/16 03:12:18;;;;;;;11.43;9.70;;;;;16.00;98628.00;;;;5078761;28;20253;-87
2021/10/16 03:14:51;;;;;;;11.50;9.70;;;;;16.00;98629.00;;;;5079497;28;20192;-88
2021/10/16 03:17:18;;;;;;;11.00;9.63;;;;;16.00;98639.00;;;;5062174;28;20196;-87
2021/10/16 03:19:45;;;;;;;11.30;9.33;;;;;16.00;98636.00;;;;5078627;28;20247;-87
2021/10/16 03:22:13;;;;;;;12.33;9.73;;;;;16.00;98639.00;;;;5078501;28;20256;-88
2021/10/16 03:24:40;;;;;;;10.63;9.37;;;;;15.90;98645.00;;;;5062049;28;20207;-88
2021/10/16 03:27:06;;;;;;;10.80;9.30;;;;;16.00;98639.00;;;;5078413;28;20609;-87
2021/10/16 03:29:34;;;;;;;11.90;9.60;;;;;16.00;98641.00;;;;5078513;28;20204;-88
2021/10/16 03:32:01;;;;;;;11.13;9.87;;;;;16.00;98632.00;;;;5078309;28;20200;-88
2021/10/16 03:34:29;;;;;;;10.70;9.47;;;;;16.00;98641.00;;;;5078840;28;20573;-87
2021/10/16 03:36:57;;;;;;;10.00;8.97;;;;;16.00;98643.00;;;;5078183;28;20677;-87
2021/10/16 03:39:23;;;;;;;10.10;8.97;;;;;16.00;98635.00;;;;5078039;28;20184;-87
2021/10/16 03:41:50;;;;;;;10.87;9.17;;;;;16.00;98629.00;;;;5061528;28;20200;-88
2021/10/16 03:44:17;;;;;;;11.23;9.57;;;;;15.90;98631.00;;;;5078068;28;20252;-87
2021/10/16 03:46:43;;;;;;;11.07;9.33;;;;;15.90;98631.00;;;;5078195;28;20628;-87
2021/10/16 03:49:10;;;;;;;11.83;9.53;;;;;15.90;98623.00;;;;5078025;28;20196;-87
2021/10/16 03:51:37;;;;;;;11.00;8.93;;;;;15.90;98634.00;;;;5061435;28;20256;-87
2021/10/16 03:54:03;;;;;;;10.13;8.83;;;;;15.90;98634.00;;;;5061311;28;20200;-87
2021/10/16 03:56:30;;;;;;;10.80;9.03;;;;;15.90;98634.00;;;;5077825;28;20189;-87
2021/10/16 03:59:01;;;;;;;10.03;9.03;;;;;15.90;98638.00;;;;5061928;28;20276;-87
2021/10/16 04:01:28;;;;;;;10.27;8.93;;;;;15.90;98637.00;;;;5077803;28;20626;-87
2021/10/16 04:03:54;;;;;;;10.40;8.87;;;;;15.90;98635.00;;;;5077755;28;20195;-87
2021/10/16 04:06:21;;;;;;;10.50;8.73;;;;;15.90;98637.00;;;;5077698;28;20194;-87
2021/10/16 04:08:48;;;;;;;9.50;8.50;;;;;15.90;98636.00;;;;5061079;28;20213;-87
2021/10/16 04:11:15;;;;;;;9.80;8.80;;;;;15.90;98630.00;;;;5077468;28;20669;-87
2021/10/16 04:13:42;;;;;;;9.73;8.30;;;;;15.90;98636.00;;;;5077555;28;20193;-87
2021/10/16 04:16:08;;;;;;;10.27;8.47;;;;;15.90;98642.00;;;;5078596;28;20212;-87
2021/10/16 04:18:35;;;;;;;9.77;8.77;;;;;15.90;98641.00;;;;5060933;28;20197;-87
2021/10/16 04:21:02;;;;;;;10.70;9.00;;;;;15.90;98639.00;;;;5077536;28;20611;-87
2021/10/16 04:23:28;;;;;;;10.83;9.03;;;;;15.90;98637.00;;;;5077359;28;20290;-87
2021/10/16 04:25:55;;;;;;;9.20;8.30;;;;;15.90;98640.00;;;;5077423;28;20192;-87
2021/10/16 04:28:22;;;;;;;9.33;8.43;;;;;15.90;98637.00;;;;5077496;28;20283;-87
2021/10/16 04:30:58;;;;;;;8.90;8.00;;;;;15.90;98630.00;;;;5077602;28;20672;-87
2021/10/16 04:33:25;;;;;;;9.10;7.83;;;;;15.90;98634.00;;;;5077299;28;20277;-87
2021/10/16 04:35:51;;;;;;;9.20;8.23;;;;;15.90;98639.00;;;;5077231;28;20205;-87
2021/10/16 04:38:18;;;;;;;8.57;7.67;;;;;15.80;98634.00;;;;5077220;28;20204;-87
2021/10/16 04:40:45;;;;;;;8.60;7.60;;;;;15.80;98633.00;;;;5060558;28;20187;-87
2021/10/16 04:43:11;;;;;;;9.23;8.20;;;;;15.90;98644.00;;;;5060614;28;20666;-87
2021/10/16 04:45:44;;;;;;;8.63;7.73;;;;;15.80;98636.00;;;;5077215;28;20627;-87
2021/10/16 04:48:11;;;;;;;9.40;8.03;;;;;15.80;98641.00;;;;5060502;28;20278;-87
2021/10/16 04:50:38;;;;;;;8.37;7.50;;;;;15.80;98630.00;;;;5059758;28;20651;-87
2021/10/16 04:53:08;;;;;;;8.63;7.67;;;;;15.80;98628.00;;;;5077049;28;20194;-87
2021/10/16 04:55:35;;;;;;;8.97;7.50;;;;;15.80;98645.00;;;;5060462;28;20199;-87
2021/10/16 04:58:02;;;;;;;8.47;7.30;;;;;15.80;98640.00;;;;5077302;28;20258;-87
2021/10/16 05:00:37;;;;;;;8.23;6.97;;;;;15.80;98642.00;;;;5077103;28;20195;-87
2021/10/16 05:03:07;;;;;;;8.43;7.30;;;;;15.80;98647.00;;;;5060730;28;20266;-87
2021/10/16 05:05:36;;;;;;;8.30;7.50;;;;;15.80;98642.00;;;;5076968;28;20616;-87
2021/10/16 05:08:06;;;;;;;9.30;7.97;;;;;15.80;98643.00;;;;5060938;28;20249;-87
2021/10/16 05:10:34;;;;;;;8.60;7.47;;;;;15.80;98644.00;;;;5076827;28;20216;-87
2021/10/16 05:13:01;;;;;;;9.13;7.90;;;;;15.80;98643.00;;;;5076876;28;20194;-87
2021/10/16 05:15:28;;;;;;;8.07;7.27;;;;;15.80;98642.00;;;;5094675;28;20190;-87
2021/10/16 05:17:55;;;;;;;7.83;7.03;;;;;15.80;98641.00;;;;5077722;28;20205;-87
2021/10/16 05:20:30;;;;;;;9.00;7.47;;;;;15.80;98650.00;;;;5077445;28;20188;-87
2021/10/16 05:22:57;;;;;;;7.60;6.90;;;;;15.80;98642.00;;;;5076738;28;20199;-87
2021/10/16 05:25:23;;;;;;;7.20;6.50;;;;;15.80;98649.00;;;;5060626;28;20188;-87
2021/10/16 05:27:50;;;;;;;7.67;6.80;;;;;15.80;98652.00;;;;5076863;28;20196;-87
2021/10/16 05:30:19;;;;;;;7.87;6.60;;;;;15.80;98651.00;;;;5076790;28;20204;-87
2021/10/16 05:32:47;;;;;;;7.30;6.60;;;;;15.80;98655.00;;;;5077804;28;20211;-87
2021/10/16 05:35:16;;;;;;;8.37;6.87;;;;;15.80;98649.00;;;;5077563;28;20251;-87
2021/10/16 05:37:43;;;;;;;7.37;6.67;;;;;15.80;98648.00;;;;5060162;28;20198;-87
2021/10/16 05:40:11;;;;;;;7.87;6.83;;;;;15.80;98658.00;;;;5077021;28;20201;-87
2021/10/16 05:42:41;;;;;;;6.77;6.17;;;;;15.80;98658.00;;;;5077980;28;20548;-87
2021/10/16 05:45:08;;;;;;;7.87;7.07;;;;;15.80;98653.00;;;;5076724;28;20218;-87
2021/10/16 05:47:37;;;;;;;6.30;5.70;;;;;15.80;98656.00;;;;5076716;28;20280;-87
2021/10/16 05:50:06;;;;;;;7.17;6.37;;;;;15.80;98664.00;;;;5076688;28;20320;-87
2021/10/16 05:52:33;;;;;;;6.73;6.03;;;;;15.80;98664.00;;;;5060359;28;20194;-87
2021/10/16 05:54:59;;;;;;;7.17;6.13;;;;;15.80;98665.00;;;;5076580;28;20203;-87
2021/10/16 05:57:26;;;;;;;6.87;6.17;;;;;15.80;98668.00;;;;5060259;28;20192;-87
2021/10/16 05:59:53;;;;;;;6.80;6.10;;;;;15.80;98672.00;;;;5076476;28;20586;-87
2021/10/16 06:02:20;;;;;;;6.50;5.73;;;;;15.80;98667.00;;;;5059926;28;20531;-87
2021/10/16 06:04:49;;;;;;;6.43;5.83;;;;;15.90;98676.00;;;;5078115;28;20610;-87
2021/10/16 06:07:17;;;;;;;6.60;5.53;;;;;15.90;98679.00;;;;5080365;28;20207;-87
2021/10/16 06:09:44;;;;;;;6.57;5.97;;;;;15.90;98671.00;;;;5062961;28;20207;-87
2021/10/16 06:12:12;;;;;;;5.93;5.30;;;;;15.90;98672.00;;;;5079469;28;20636;-87
2021/10/16 06:14:39;;;;;;;6.07;5.47;;;;;15.90;98682.00;;;;5080032;28;20233;-86
2021/10/16 06:17:20;;;;;;;5.83;5.27;;;;;15.90;98683.00;;;;5079654;28;20195;-87
2021/10/16 06:19:47;;;;;;;5.87;5.27;;;;;15.90;98683.00;;;;5079650;28;20197;-87
2021/10/16 06:22:14;;;;;;;5.60;5.10;;;;;15.90;98687.00;;;;5063171;28;20360;-87
2021/10/16 06:24:42;;;;;;;7.67;5.50;;;;;15.90;98688.00;;;;5079413;28;20232;-87
2021/10/16 06:27:09;;;;;;;6.63;5.60;;;;;16.00;98693.00;;;;5079574;28;20207;-86
2021/10/16 06:29:36;;;;;;;6.10;5.50;;;;;16.00;98693.00;;;;5079831;28;20582;-86
2021/10/16 06:32:02;;;;;;;6.57;5.90;;;;;16.00;98694.00;;;;5097439;28;20269;-86
2021/10/16 06:34:29;;;;;;;7.03;5.63;;;;;16.10;98696.00;;;;5062829;28;20280;-86
2021/10/16 06:36:56;;;;;;;6.53;5.30;;;;;16.10;98702.00;;;;5063092;28;20211;-86
2021/10/16 06:39:22;;;;;;;6.93;4.90;;;;;16.10;98697.00;;;;5079296;28;20198;-86
2021/10/16 06:41:56;;;;;;;5.43;4.93;;;;;16.10;98704.00;;;;5079311;28;20190;-86
2021/10/16 06:44:25;;;;;;;5.57;5.07;;;;;16.10;98707.00;;;;5080338;28;20196;-86
2021/10/16 06:47:31;;;;;;;6.43;5.00;;;;;16.10;98703.00;;;;5055056;28;20635;-86
2021/10/16 06:50:08;;;;;;;5.70;5.20;;;;;16.10;98708.00;;;;5054993;28;20320;-86
2021/10/16 06:52:35;;;;;;;5.40;4.90;;;;;16.10;98712.00;;;;5044199;28;20645;-86
2021/10/16 06:55:01;;;;;;;5.93;5.10;;;;;16.10;98710.00;;;;5078823;28;20191;-87
2021/10/16 06:57:28;;;;;;;5.43;4.90;;;;;16.10;98717.00;;;;5062442;28;20571;-86
2021/10/16 06:59:55;;;;;;;5.77;4.77;;;;;16.10;98705.00;;;;5078870;28;20631;-86
2021/10/16 07:02:21;;;;;;;5.20;4.70;;;;;16.10;98708.00;;;;5078967;28;20288;-86
2021/10/16 07:05:05;;;;;;;5.27;4.67;;;;;16.10;98718.00;;;;5079104;28;20190;-86
2021/10/16 07:07:31;;;;;;;5.00;4.50;;;;;16.10;98713.00;;;;5079117;28;20198;-86
2021/10/16 07:10:01;;;;;;;4.43;4.03;;;;;16.10;98707.00;;;;5078799;28;20223;-86
2021/10/16 07:12:27;;;;;;;5.67;4.90;;;;;16.10;98719.00;;;;5078643;28;20205;-86
2021/10/16 07:14:54;;;;;;;4.77;4.23;;;;;16.10;98719.00;;;;5078366;28;20677;-86
2021/10/16 07:17:20;;;;;;;5.40;4.70;;;;;16.10;98718.00;;;;5063147;28;20567;-86
2021/10/16 07:19:50;;;;;;;5.17;4.43;;;;;16.10;98734.00;;;;5078853;28;20184;-86
2021/10/16 07:22:20;;;;;;;4.77;4.20;;;;;16.10;98728.00;;;;5078812;28;20202;-87
2021/10/16 07:24:47;;;;;;;5.30;4.47;;;;;16.10;98728.00;;;;5078645;28;20196;-87
2021/10/16 07:27:15;;;;;;;4.77;4.27;;;;;16.10;98725.00;;;;5078368;28;20202;-87
2021/10/16 07:29:42;;;;;;;4.27;3.87;;;;;16.10;98730.00;;;;5096308;28;20186;-87
2021/10/16 07:32:09;;;;;;;4.63;4.23;;;;;16.00;98732.00;;;;5078635;28;20232;-87
2021/10/16 07:34:35;;;;;;;5.13;4.63;;;;;16.00;98728.00;;;;5078626;28;20199;-87
2021/10/16 07:37:02;;;;;;;4.93;4.43;;;;;16.00;98732.00;;;;5078960;28;20697;-87
2021/10/16 07:39:29;;;;;;;5.07;4.53;;;;;16.10;98726.00;;;;5078618;28;20204;-87
2021/10/16 07:41:55;;;;;;;4.70;4.23;;;;;16.00;98723.00;;;;5078657;28;20190;-87
2021/10/16 07:44:22;;;;;;;5.40;4.23;;;;;16.00;98725.00;;;;5061901;28;20199;-87
2021/10/16 07:46:49;;;;;;;6.57;4.50;;;;;16.00;98735.00;;;;5079071;28;20198;-88
2021/10/16 07:49:15;;;;;;;4.60;4.20;;;;;16.00;98739.00;;;;5096211;28;20201;-87
2021/10/16 07:51:42;;;;;;;4.60;4.20;;;;;16.10;98728.00;;;;5078480;28;20213;-87
2021/10/16 07:54:09;;;;;;;4.40;4.00;;;;;16.10;98726.00;;;;5062027;28;20195;-88
2021/10/16 07:56:35;;;;;;;4.70;4.30;;;;;16.10;98735.00;;;;5077977;28;20525;-88
2021/10/16 07:59:02;;;;;;;4.00;3.70;;;;;16.10;98733.00;;;;5078357;28;20209;-88
2021/10/16 08:01:33;;;;;;;4.47;4.07;;;;;16.10;98734.00;;;;5096147;28;20187;-88
2021/10/16 08:03:59;;;;;;;4.43;4.03;;;;;16.10;98735.00;;;;5078487;28;20195;-89
2021/10/16 08:06:26;;;;;;;4.60;4.17;;;;;16.10;98734.00;;;;5061894;28;20196;-89
2021/10/16 08:08:54;;;;;;;4.37;3.97;;;;;16.10;98740.00;;;;5062371;28;20197;-89
2021/10/16 08:11:40;;;;;;;5.17;3.73;;;;;16.20;98735.00;;;;5080922;28;20305;-89
2021/10/16 08:14:07;;;;;;;4.73;4.30;;;;;16.20;98733.00;;;;5078587;28;20201;-89
2021/10/16 08:16:33;;;;;;;4.13;3.73;;;;;16.30;98733.00;;;;5096368;28;20194;-89
2021/10/16 08:19:00;;;;;;;3.77;3.47;;;;;16.40;98734.00;;;;5061248;28;20196;-89
2021/10/16 08:21:26;;;;;;;4.37;3.97;;;;;16.40;98739.00;;;;5077272;28;20612;-90
2021/10/16 08:28:31;;;;;;;4.00;3.70;;;;;16.50;98742.00;;;;7229334;19;20498;-60
2021/10/16 08:31:01;;;;;;;4.13;3.73;;;;;16.40;98746.00;;;;7334066;19;109906;-60
2021/10/16 08:33:28;;;;;;;3.70;3.40;;;;;16.40;98746.00;;;;7428947;19;20140;-61
2021/10/16 08:35:54;;;;;;;4.53;4.13;;;;;16.40;98746.00;;;;7430235;19;20123;-61
2021/10/16 08:38:21;;;;;;;4.83;3.80;;;;;16.40;98748.00;;;;7428145;19;20110;-60
2021/10/16 08:40:50;;;;;;;3.53;3.23;;;;;16.40;98754.00;;;;7431269;19;20511;-59
2021/10/16 08:43:18;;;;;;;3.50;3.20;;;;;16.40;98742.00;;;;7432287;19;20126;-64
2021/10/16 08:45:45;;;;;;;3.90;3.50;;;;;16.30;98754.00;;;;7429427;19;20139;-60
2021/10/16 08:48:16;;;;;;;3.80;3.50;;;;;16.30;98754.00;;;;7427508;19;20146;-60
2021/10/16 08:50:46;;;;;;;5.60;3.80;;;;;16.40;98752.00;;;;7429847;19;20114;-64
2021/10/16 08:53:13;;;;;;;3.53;3.23;;;;;16.40;98756.00;;;;7430338;19;20107;-60
2021/10/16 08:55:41;;;;;;;3.83;3.53;;;;;16.40;98753.00;;;;7430075;19;20177;-61
2021/10/16 08:58:08;;;;;;;3.83;3.43;;;;;16.40;98751.00;;;;7430391;19;20120;-60
2021/10/16 09:00:52;;;;;;;4.13;3.50;;;;;16.40;98745.00;;;;7429778;19;20131;-60
2021/10/16 09:03:41;;;;;;;3.63;3.33;;;;;16.40;98745.00;;;;7428838;19;20135;-59
2021/10/16 09:06:09;;;;;;;5.07;3.57;;;;;16.40;98749.00;;;;7429363;19;20114;-61
2021/10/16 09:08:55;;;;;;;4.10;3.70;;;;;16.40;98749.00;;;;7430620;19;20130;-61
2021/10/16 09:11:25;;;;;;;4.20;3.40;;;;;16.40;98757.00;;;;7426995;19;20183;-61
2021/10/16 09:14:07;;;;;;;4.00;3.60;;;;;16.50;98747.00;;;;7429402;19;20121;-63
2021/10/16 09:16:39;;;;;;;4.23;3.23;;;;;16.40;98761.00;;;;7427384;19;20124;-63
2021/10/16 09:19:41;;;;;;;3.90;3.50;;;;;16.40;98752.00;;;;7428909;19;20119;-63
2021/10/16 09:22:10;;;;;;;3.87;3.47;;;;;16.40;98750.00;;;;7424190;19;20150;-62
2021/10/16 09:24:45;;;;;;;3.23;2.93;;;;;16.40;98745.00;;;;7428250;19;20113;-64
2021/10/16 09:27:18;;;;;;;3.50;3.20;;;;;16.40;98745.00;;;;7426964;19;20117;-63
2021/10/16 09:29:47;;;;;;;3.70;3.40;;;;;16.40;98747.00;;;;7428174;19;20117;-64
2021/10/16 09:32:16;;;;;;;3.87;3.13;;;;;16.40;98745.00;;;;7425719;19;20169;-63
2021/10/16 09:34:48;;;;;;;3.27;3.00;;;;;16.40;98740.00;;;;7428013;19;20569;-64
2021/10/16 09:37:16;;;;;;;3.80;3.50;;;;;16.40;98741.00;;;;7428134;19;20125;-62
2021/10/16 09:39:55;;;;;;;3.67;3.37;;;;;16.40;98743.00;;;;7400175;19;20109;-64
2021/10/16 09:42:30;;;;;;;4.50;3.00;;;;;16.40;98745.00;;;;7397855;19;20140;-63
2021/10/16 09:44:59;;;;;;;3.17;2.93;;;;;16.40;98738.00;;;;7399459;19;20126;-63
2021/10/16 09:47:26;;;;;;;3.23;2.93;;;;;16.40;98739.00;;;;7396382;19;20136;-64
2021/10/16 09:50:06;;;;;;;3.57;3.27;;;;;16.40;98736.00;;;;7398891;19;20110;-62
2021/10/16 09:52:38;;;;;;;3.40;3.10;;;;;16.40;98732.00;;;;7395864;19;20158;-63
2021/10/16 09:55:07;;;;;;;3.63;3.33;;;;;16.40;98732.00;;;;7397871;19;20115;-62
2021/10/16 09:57:34;;;;;;;3.97;3.33;;;;;16.40;98730.00;;;;7396996;19;20554;-62
2021/10/16 10:00:01;;;;;;;3.53;3.23;;;;;16.40;98730.00;;;;7398472;19;20577;-64
2021/10/16 10:02:38;;;;;;;2.97;2.77;;;;;16.40;98737.00;;;;7396968;19;20186;-63
2021/10/16 10:05:07;;;;;;;3.67;3.30;;;;;16.40;98727.00;;;;7398734;19;20133;-62
2021/10/16 10:07:35;;;;;;;3.60;3.30;;;;;16.40;98723.00;;;;7397359;19;20148;-63
2021/10/16 10:10:04;;;;;;;3.53;2.93;;;;;16.40;98726.00;;;;7397886;19;20143;-62
2021/10/16 10:12:33;;;;;;;3.20;2.93;;;;;16.40;98727.00;;;;7396621;19;20148;-62
2021/10/16 10:15:00;;;;;;;3.07;2.87;;;;;16.40;98725.00;;;;7397190;19;20188;-62
2021/10/16 10:17:32;;;;;;;3.53;3.23;;;;;16.40;98719.00;;;;7397832;19;20110;-62
2021/10/16 10:20:03;;;;;;;3.20;2.90;;;;;16.40;98718.00;;;;7396788;19;20460;-62
2021/10/16 10:22:35;;;;;;;3.00;2.80;;;;;16.40;98712.00;;;;7396124;19;20452;-62
2021/10/16 10:25:23;;;;;;;2.97;2.73;;;;;16.40;98710.00;;;;7398073;19;20567;-63
2021/10/16 10:27:50;;;;;;;3.43;3.13;;;;;16.40;98717.00;;;;7396404;19;20136;-63
2021/10/16 10:30:36;;;;;;;3.30;3.00;;;;;16.40;98717.00;;;;7397482;19;20118;-62
2021/10/16 10:33:21;;;;;;;3.30;3.00;;;;;16.40;98710.00;;;;7394149;19;20581;-62
2021/10/16 10:36:18;;;;;;;2.97;2.77;;;;;16.40;98706.00;;;;7396227;19;20507;-63
2021/10/16 10:38:45;;;;;;;3.30;3.00;;;;;16.40;98707.00;;;;7396676;19;20151;-63
2021/10/16 10:41:23;;;;;;;3.30;2.97;;;;;16.40;98703.00;;;;7396619;19;20128;-64
2021/10/16 10:43:52;;;;;;;3.07;2.83;;;;;16.40;98707.00;;;;7395997;19;20115;-65
2021/10/16 10:46:27;;;;;;;3.00;2.80;;;;;16.40;98707.00;;;;7396174;19;20130;-64
2021/10/16 10:49:06;;;;;;;2.87;2.67;;;;;16.50;98708.00;;;;7394852;19;20149;-64
2021/10/16 10:51:36;;;;;;;3.40;2.73;;;;;16.50;98702.00;;;;7394151;19;20198;-64
2021/10/16 10:54:17;;;;;;;3.17;2.87;;;;;16.50;98696.00;;;;7397307;19;20547;-65
2021/10/16 10:56:50;;;;;;;3.40;3.10;;;;;16.50;98697.00;;;;7397386;19;20185;-64
2021/10/16 10:59:18;;;;;;;3.47;3.17;;;;;16.50;98692.00;;;;7395211;19;20133;-66
2021/10/16 11:01:49;;;;;;;3.07;2.63;;;;;16.50;98694.00;;;;7396062;19;20126;-65
2021/10/16 11:04:44;;;;;;;3.27;2.97;;;;;16.50;98696.00;;;;7396827;19;20111;-64
2021/10/16 11:07:40;;;;;;;3.77;3.00;;;;;16.50;98692.00;;;;7396777;19;20115;-65
2021/10/16 11:10:10;;;;;;;3.07;2.77;;;;;16.50;98684.00;;;;7397016;19;20425;-64
2021/10/16 11:12:39;;;;;;;3.70;2.73;;;;;16.50;98686.00;;;;7393694;19;20528;-60
2021/10/16 11:15:08;;;;;;;3.17;2.73;;;;;16.50;98691.00;;;;7396456;19;20113;-61
2021/10/16 11:17:39;;;;;;;5.03;3.30;;;;;16.50;98689.00;;;;7396701;19;20628;-60
2021/10/16 11:20:09;;;;;;;3.77;2.80;;;;;16.60;98679.00;;;;7396538;19;20115;-60
2021/10/16 11:22:46;;;;;;;3.60;3.20;;;;;16.60;98687.00;;;;7394394;19;20134;-59
2021/10/16 11:25:18;;;;;;;3.17;2.87;;;;;16.60;98680.00;;;;7396445;19;20157;-59
2021/10/16 11:28:03;;;;;;;3.10;2.80;;;;;16.60;98682.00;;;;7395522;19;20570;-59
2021/10/16 11:30:30;;;;;;;3.80;2.97;;;;;16.60;98677.00;;;;7395442;19;20120;-59
2021/10/16 11:33:18;;;;;;;3.23;2.50;;;;;16.60;98676.00;;;;7393555;19;20121;-59
2021/10/16 11:35:48;;;;;;;4.00;2.80;;;;;16.60;98668.00;;;;7395282;19;20132;-60
2021/10/16 11:38:23;;;;;;;3.00;2.70;;;;;16.60;98669.00;;;;7395066;19;20487;-57
2021/10/16 11:40:51;;;;;;;2.83;2.63;;;;;16.60;98659.00;;;;7394943;19;20145;-59
2021/10/16 11:43:24;;;;;;;3.10;2.80;;;;;16.60;98657.00;;;;7395308;19;20109;-60
2021/10/16 11:45:53;;;;;;;2.80;2.60;;;;;16.60;98657.00;;;;7394875;19;20134;-59
2021/10/16 11:48:23;;;;;;;3.00;2.67;;;;;16.50;98655.00;;;;7393471;19;20581;-59
2021/10/16 11:50:50;;;;;;;3.10;2.90;;;;;16.50;98657.00;;;;7394765;19;20477;-59
2021/10/16 11:53:21;;;;;;;2.83;2.63;;;;;16.60;98656.00;;;;7394802;19;20117;-59
2021/10/16 11:55:52;;;;;;;2.70;2.50;;;;;16.60;98658.00;;;;7395503;19;20109;-59
2021/10/16 11:58:21;;;;;;;3.13;2.77;;;;;16.60;98644.00;;;;7395624;19;20115;-59
2021/10/16 12:00:53;;;;;;;2.70;2.50;;;;;16.60;98644.00;;;;7392914;19;20136;-60
2021/10/16 12:03:23;;;;;;;3.27;2.57;;;;;16.60;98637.00;;;;7394618;19;20139;-59
2021/10/16 12:05:55;;;;;;;2.87;2.67;;;;;16.60;98634.00;;;;7393489;19;20139;-59
2021/10/16 12:08:23;;;;;;;2.97;2.70;;;;;16.60;98631.00;;;;7392146;19;20135;-60
2021/10/16 12:11:01;;;;;;;3.00;2.73;;;;;16.60;98635.00;;;;7395427;19;20115;-61
2021/10/16 12:13:31;;;;;;;2.70;2.50;;;;;16.60;98627.00;;;;7393343;19;20115;-61
2021/10/16 12:15:59;;;;;;;2.80;2.50;;;;;16.60;98626.00;;;;7394355;19;20143;-61
2021/10/16 12:18:30;;;;;;;2.40;2.20;;;;;16.60;98618.00;;;;7394228;19;20121;-60
2021/10/16 12:21:00;;;;;;;2.77;2.57;;;;;16.60;98623.00;;;;7394293;19;20154;-60
2021/10/16 12:23:46;;;;;;;2.53;2.33;;;;;16.70;98628.00;;;;7394497;19;20118;-60
2021/10/16 12:26:24;;;;;;;3.10;2.80;;;;;16.70;98622.00;;;;7394125;19;20117;-60
2021/10/16 12:28:52;;;;;;;3.17;2.50;;;;;16.70;98625.00;;;;7393832;19;20122;-60